Time;durP1;ratioP1;P1;durP2;ratioP2;P2;SDS_P1;SDS_P2;PMS_P1;PMS_P2;Temp;Humidity;BMP_temperature;BMP_pressure;BME280_temperature;BME280_humidity;BME280_pressure;Samples;Min_cycle;Max_cycle;Signal;HPM_P1;HPM_P2
2023/06/22 00:01:59;;;;;;;7.22;5.60;;;19.90;99.90;;;19.85;100.00;97280.34;5081193;28;20229;-37
2023/06/22 00:04:25;;;;;;;8.93;6.28;;;19.90;99.90;;;19.84;100.00;97281.31;5082026;28;20036;-37
2023/06/22 00:06:50;;;;;;;9.02;6.40;;;19.90;99.90;;;19.84;100.00;97281.31;5083043;28;20043;-37
2023/06/22 00:09:16;;;;;;;8.35;5.60;;;19.90;99.90;;;19.83;100.00;97287.66;5082029;28;20027;-37
2023/06/22 00:11:42;;;;;;;6.72;5.90;;;19.90;99.90;;;19.83;100.00;97284.97;5084737;27;20051;-37
2023/06/22 00:14:08;;;;;;;8.77;6.20;;;19.80;99.90;;;19.82;100.00;97286.78;5077093;28;20028;-37
2023/06/22 00:16:34;;;;;;;8.43;6.32;;;19.80;99.90;;;19.80;100.00;97285.19;5081199;28;20154;-37
2023/06/22 00:19:01;;;;;;;7.47;5.75;;;19.80;99.90;;;19.75;100.00;97280.19;5063838;28;20874;-37
2023/06/22 00:21:27;;;;;;;6.97;6.10;;;19.80;99.90;;;19.72;100.00;97291.09;5079494;28;20490;-37
2023/06/22 00:23:53;;;;;;;7.47;6.18;;;19.80;99.90;;;19.70;100.00;97300.19;5080360;28;20287;-37
2023/06/22 00:26:20;;;;;;;6.72;6.03;;;19.80;99.90;;;19.67;100.00;97293.28;5077204;28;20032;-37
2023/06/22 00:28:46;;;;;;;9.20;5.90;;;19.70;99.90;;;19.45;100.00;97256.56;5082477;28;20689;-37
2023/06/22 00:31:12;;;;;;;6.88;5.95;;;19.70;99.90;;;19.58;100.00;97280.59;5083904;28;20055;-37
2023/06/22 00:33:37;;;;;;;9.25;6.25;;;19.70;99.90;;;19.63;100.00;97281.06;5082088;28;20031;-37
2023/06/22 00:36:06;;;;;;;7.95;6.13;;;19.70;99.90;;;19.60;100.00;97279.50;5080901;28;20420;-37
2023/06/22 00:38:31;;;;;;;7.80;5.90;;;19.70;99.90;;;19.58;100.00;97276.09;5082873;27;20032;-37
2023/06/22 00:40:57;;;;;;;6.97;5.95;;;19.60;99.90;;;19.55;100.00;97272.78;5084074;28;20042;-37
2023/06/22 00:43:23;;;;;;;7.65;5.90;;;19.60;99.90;;;19.55;100.00;97279.00;5079960;27;20065;-37
2023/06/22 00:45:48;;;;;;;7.80;6.28;;;19.60;99.90;;;19.52;100.00;97276.53;5081220;28;20409;-37
2023/06/22 00:48:15;;;;;;;8.70;6.20;;;19.60;99.90;;;19.51;100.00;97277.53;5083265;27;20098;-37
2023/06/22 00:50:41;;;;;;;7.40;5.90;;;19.60;99.90;;;19.49;100.00;97282.13;5065570;27;20130;-37
2023/06/22 00:53:09;;;;;;;8.68;6.20;;;19.50;99.90;;;19.50;100.00;97289.19;5062615;28;20177;-37
2023/06/22 00:55:43;;;;;;;7.25;5.68;;;19.60;99.90;;;19.51;100.00;97301.59;5073581;27;20031;-38
2023/06/22 00:58:10;;;;;;;11.38;6.38;;;19.60;99.90;;;19.53;100.00;97314.84;5074240;28;20030;-37
2023/06/22 01:00:37;;;;;;;8.80;6.10;;;19.60;99.90;;;19.56;100.00;97306.56;5077595;28;20142;-38
2023/06/22 01:03:04;;;;;;;9.18;6.43;;;19.60;99.90;;;19.56;100.00;97294.09;5080146;28;20031;-38
2023/06/22 01:05:31;;;;;;;8.57;6.65;;;19.60;99.90;;;19.51;100.00;97312.28;5076187;27;20036;-37
2023/06/22 01:08:16;;;;;;;12.38;6.80;;;19.60;99.90;;;19.55;100.00;97363.72;5087517;28;20020;-38
2023/06/22 01:11:00;;;;;;;10.57;6.30;;;19.70;99.90;;;19.57;100.00;97361.78;5077774;28;20027;-38
2023/06/22 01:13:41;;;;;;;10.43;7.00;;;19.70;99.90;;;19.51;100.00;97300.75;5068063;28;20472;-38
2023/06/22 01:16:22;;;;;;;9.18;7.18;;;19.60;99.90;;;19.47;100.00;97305.47;5074966;28;20148;-38
2023/06/22 01:18:53;;;;;;;10.50;7.60;;;19.50;99.90;;;19.44;100.00;97327.09;5084393;28;20036;-38
2023/06/22 01:21:21;;;;;;;8.82;6.65;;;19.60;99.90;;;19.42;100.00;97329.03;5062881;28;20389;-38
2023/06/22 01:24:24;;;;;;;7.90;6.30;;;19.50;99.90;;;19.39;100.00;97311.38;5062824;28;20036;-37
2023/06/22 01:27:21;;;;;;;7.07;5.53;;;19.50;99.90;;;19.34;100.00;97291.28;5063390;28;20614;-37
2023/06/22 01:29:51;;;;;;;10.10;6.90;;;19.40;99.90;;;19.24;100.00;97302.66;5059573;28;20126;-37
2023/06/22 01:32:18;;;;;;;8.60;6.50;;;19.30;99.90;;;19.15;100.00;97299.81;5059378;28;20032;-37
2023/06/22 01:34:45;;;;;;;8.55;6.25;;;19.30;99.90;;;19.08;100.00;97302.09;5061403;27;20039;-37
2023/06/22 01:37:13;;;;;;;7.10;5.60;;;19.20;99.90;;;19.00;100.00;97291.94;5064664;28;20032;-37
2023/06/22 01:39:39;;;;;;;7.72;6.20;;;19.10;99.90;;;18.94;100.00;97297.75;5070197;28;20067;-37
2023/06/22 01:42:06;;;;;;;9.52;6.18;;;19.00;99.90;;;18.91;100.00;97314.00;5063975;28;20123;-37
2023/06/22 01:44:32;;;;;;;7.53;6.40;;;19.00;99.90;;;18.90;100.00;97304.28;5075011;28;20047;-37
2023/06/22 01:46:59;;;;;;;6.57;5.72;;;19.00;99.90;;;18.86;100.00;97300.97;5066307;28;20035;-37
2023/06/22 01:49:25;;;;;;;10.18;6.50;;;19.00;99.90;;;18.80;100.00;97300.53;5054797;28;20059;-37
2023/06/22 01:51:51;;;;;;;7.55;6.35;;;18.90;99.90;;;18.63;100.00;97299.91;5058887;28;20155;-37
2023/06/22 01:54:16;;;;;;;8.57;6.53;;;18.80;99.90;;;18.62;100.00;97322.25;5078689;28;20650;-37
2023/06/22 01:56:42;;;;;;;8.50;6.57;;;18.80;99.90;;;18.58;100.00;97315.41;5078007;28;20040;-37
2023/06/22 01:59:34;;;;;;;7.75;6.65;;;18.70;99.90;;;18.46;100.00;97309.09;5080249;27;20027;-37
2023/06/22 02:02:10;;;;;;;10.02;6.68;;;18.70;99.90;;;18.48;100.00;97320.56;5081274;28;20032;-37
2023/06/22 02:04:51;;;;;;;7.85;6.75;;;18.60;99.90;;;18.45;100.00;97312.75;5055207;28;20040;-37
2023/06/22 02:07:21;;;;;;;9.30;7.30;;;18.60;99.90;;;18.45;100.00;97310.09;5063430;28;20035;-37
2023/06/22 02:09:51;;;;;;;7.75;6.93;;;18.50;99.90;;;18.41;100.00;97311.28;5058291;28;20031;-37
2023/06/22 02:12:23;;;;;;;10.07;7.75;;;18.50;99.90;;;18.41;100.00;97321.97;5057518;28;20058;-37
2023/06/22 02:14:51;;;;;;;9.50;7.15;;;18.50;99.90;;;18.42;100.00;97315.63;5061082;28;20028;-37
2023/06/22 02:17:18;;;;;;;10.23;7.22;;;18.50;99.90;;;18.43;100.00;97320.03;5060744;28;20543;-37
2023/06/22 02:19:44;;;;;;;8.55;7.35;;;18.50;99.90;;;18.42;100.00;97322.78;5057653;28;20032;-37
2023/06/22 02:22:09;;;;;;;18.33;7.57;;;18.50;99.90;;;18.41;100.00;97323.75;5076095;28;20032;-37
2023/06/22 02:24:35;;;;;;;8.10;6.70;;;18.50;99.90;;;18.42;100.00;97318.31;5077938;28;20598;-37
2023/06/22 02:27:02;;;;;;;9.52;7.03;;;18.50;99.90;;;18.43;100.00;97325.38;5078349;28;20031;-37
2023/06/22 02:29:28;;;;;;;9.68;6.97;;;18.50;99.90;;;18.42;100.00;97307.63;5076930;28;20046;-37
2023/06/22 02:31:55;;;;;;;8.23;6.80;;;18.50;99.90;;;18.36;100.00;97300.06;5077835;28;20109;-37
2023/06/22 02:34:21;;;;;;;14.23;8.80;;;18.50;99.90;;;18.37;100.00;97307.09;5074669;28;20119;-37
2023/06/22 02:36:52;;;;;;;10.32;8.23;;;18.50;99.90;;;18.39;100.00;97290.97;5080422;28;20028;-37
2023/06/22 02:39:22;;;;;;;8.43;7.43;;;18.50;99.90;;;18.46;100.00;97297.59;5077785;28;20031;-37
2023/06/22 02:41:50;;;;;;;9.18;7.00;;;18.50;99.90;;;18.44;100.00;97287.00;5080846;28;20069;-36
2023/06/22 02:44:16;;;;;;;11.20;6.80;;;18.60;99.90;;;18.48;100.00;97290.31;5070389;28;20055;-37
2023/06/22 02:46:42;;;;;;;9.95;7.13;;;18.60;99.90;;;18.40;100.00;97280.19;5074587;28;20028;-37
2023/06/22 02:49:08;;;;;;;9.15;6.30;;;18.60;99.90;;;18.49;100.00;97287.53;5076430;28;20536;-37
2023/06/22 02:51:34;;;;;;;8.90;6.68;;;18.60;99.90;;;18.47;100.00;97280.63;5081041;28;20047;-37
2023/06/22 02:54:00;;;;;;;8.05;6.70;;;18.60;99.90;;;18.46;100.00;97279.75;5079673;28;20031;-37
2023/06/22 02:56:26;;;;;;;9.30;6.47;;;18.50;99.90;;;18.47;100.00;97277.94;5077764;28;20031;-37
2023/06/22 02:58:52;;;;;;;10.48;6.80;;;18.60;99.90;;;18.47;100.00;97285.94;5079880;28;20027;-37
2023/06/22 03:01:23;;;;;;;8.90;6.82;;;18.60;99.90;;;18.44;100.00;97273.66;5055428;28;20031;-37
2023/06/22 03:03:48;;;;;;;6.60;5.70;;;18.60;99.90;;;18.44;100.00;97270.13;5074713;28;20032;-37
2023/06/22 03:06:14;;;;;;;8.73;6.15;;;18.60;99.90;;;18.38;100.00;97271.44;5074939;28;20475;-37
2023/06/22 03:08:41;;;;;;;7.47;6.28;;;18.50;99.90;;;18.38;100.00;97279.44;5075553;28;20043;-37
2023/06/22 03:11:07;;;;;;;8.48;6.28;;;18.50;99.90;;;18.33;100.00;97270.06;5075488;28;20032;-37
2023/06/22 03:13:33;;;;;;;8.93;6.13;;;18.40;99.90;;;18.28;100.00;97263.19;5078780;28;20435;-37
2023/06/22 03:15:59;;;;;;;9.38;6.95;;;18.40;99.90;;;18.24;100.00;97267.06;5080098;28;20038;-37
2023/06/22 03:18:25;;;;;;;7.57;6.15;;;18.40;99.90;;;18.21;100.00;97277.09;5080267;27;20624;-37
2023/06/22 03:20:50;;;;;;;7.57;5.80;;;18.30;99.90;;;18.15;100.00;97269.53;5080753;28;20760;-37
2023/06/22 03:23:16;;;;;;;7.25;6.35;;;18.30;99.90;;;18.09;100.00;97271.66;5074920;28;20390;-37
2023/06/22 03:25:44;;;;;;;8.82;6.88;;;18.20;99.90;;;18.06;100.00;97265.69;5071738;28;20055;-37
2023/06/22 03:28:10;;;;;;;7.32;6.53;;;18.10;99.90;;;18.02;100.00;97270.38;5080893;28;20056;-37
2023/06/22 03:30:36;;;;;;;8.95;6.75;;;18.10;99.90;;;17.99;100.00;97270.56;5081188;27;20601;-37
2023/06/22 03:33:01;;;;;;;8.80;7.47;;;18.10;99.90;;;17.98;100.00;97273.34;5082350;28;20028;-37
2023/06/22 03:35:27;;;;;;;9.65;7.07;;;18.20;99.90;;;17.98;100.00;97271.56;5077423;28;20028;-37
2023/06/22 03:37:53;;;;;;;11.45;7.50;;;18.10;99.90;;;17.97;100.00;97269.84;5084770;27;20067;-37
2023/06/22 03:40:19;;;;;;;9.02;7.20;;;18.10;99.90;;;17.96;100.00;97264.59;5082209;27;20237;-37
2023/06/22 03:42:45;;;;;;;10.45;6.93;;;18.00;99.90;;;17.95;100.00;97262.91;5077777;28;20481;-37
2023/06/22 03:45:11;;;;;;;10.00;7.22;;;18.10;99.90;;;17.95;100.00;97265.56;5081662;28;20055;-37
2023/06/22 03:47:37;;;;;;;10.27;7.38;;;18.10;99.90;;;17.97;100.00;97269.00;5086137;27;20489;-37
2023/06/22 03:50:06;;;;;;;10.27;7.38;;;18.10;99.90;;;17.96;100.00;97256.59;5073120;27;20412;-37
2023/06/22 03:52:32;;;;;;;8.77;7.10;;;18.10;99.90;;;17.99;100.00;97246.56;5077832;28;20109;-37
2023/06/22 03:54:58;;;;;;;9.88;7.85;;;18.10;99.90;;;18.03;100.00;97241.88;5071448;27;20051;-37
2023/06/22 03:57:23;;;;;;;15.40;8.18;;;18.30;99.90;;;18.03;100.00;97250.72;5070512;28;20393;-37
2023/06/22 03:59:49;;;;;;;11.00;7.90;;;18.40;99.90;;;18.08;100.00;97250.41;5055708;28;20020;-36
2023/06/22 04:02:15;;;;;;;9.68;7.00;;;18.50;99.90;;;18.12;100.00;97257.22;5071896;28;20038;-37
2023/06/22 04:04:41;;;;;;;7.82;6.40;;;18.50;99.90;;;18.05;100.00;97230.16;5071199;27;20477;-37
2023/06/22 04:07:07;;;;;;;7.82;6.43;;;18.30;99.90;;;18.22;100.00;97254.78;5073380;28;20039;-37
2023/06/22 04:09:33;;;;;;;10.52;6.72;;;18.40;99.90;;;18.26;100.00;97248.28;5076902;28;20110;-37
2023/06/22 04:11:58;;;;;;;9.15;6.60;;;18.40;99.90;;;18.30;100.00;97247.09;5073425;27;20031;-37
2023/06/22 04:14:24;;;;;;;9.20;7.90;;;18.40;99.90;;;18.36;100.00;97251.13;5064453;27;20389;-37
2023/06/22 04:16:51;;;;;;;9.80;6.57;;;18.40;99.90;;;18.42;100.00;97248.03;5070989;27;20040;-37
2023/06/22 04:19:17;;;;;;;11.10;7.18;;;18.50;99.90;;;18.48;100.00;97247.59;5075596;27;20066;-37
2023/06/22 04:21:44;;;;;;;9.20;6.82;;;18.60;99.90;;;18.55;100.00;97248.00;5079757;28;20062;-37
2023/06/22 04:24:11;;;;;;;8.43;6.82;;;18.60;99.90;;;18.60;100.00;97241.38;5074540;28;20039;-36
2023/06/22 04:26:37;;;;;;;7.35;6.55;;;18.70;99.90;;;18.66;100.00;97238.28;5073870;28;20036;-37
2023/06/22 04:29:05;;;;;;;8.18;6.57;;;18.70;99.90;;;18.68;100.00;97236.34;5078504;28;20044;-36
2023/06/22 04:31:36;;;;;;;8.93;7.05;;;18.80;99.90;;;18.79;100.00;97235.56;5081844;28;20032;-37
2023/06/22 04:34:06;;;;;;;8.98;7.15;;;18.90;99.90;;;18.88;100.00;97239.41;5084052;27;20028;-37
2023/06/22 04:36:40;;;;;;;9.68;7.05;;;19.00;99.90;;;18.98;100.00;97234.25;5077441;28;20042;-37
2023/06/22 04:39:09;;;;;;;8.13;6.80;;;19.10;99.90;;;19.04;100.00;97237.31;5079682;28;20034;-37
2023/06/22 04:41:41;;;;;;;10.13;6.60;;;19.10;99.90;;;19.14;100.00;97236.63;5074842;28;20028;-37
2023/06/22 04:44:09;;;;;;;9.68;6.80;;;19.20;99.90;;;19.12;100.00;97227.88;5077871;28;20026;-36
2023/06/22 04:46:37;;;;;;;7.25;6.13;;;19.30;99.90;;;19.20;100.00;97230.81;5072632;28;20123;-37
2023/06/22 04:49:09;;;;;;;8.98;6.70;;;19.30;99.90;;;19.25;100.00;97237.53;5083823;28;20529;-37
2023/06/22 04:51:41;;;;;;;8.30;6.20;;;19.30;99.90;;;19.30;100.00;97222.97;5073883;27;20036;-37
2023/06/22 04:54:07;;;;;;;8.48;6.20;;;19.40;99.90;;;19.36;100.00;97215.34;5062244;28;20038;-37
2023/06/22 04:56:33;;;;;;;8.73;6.18;;;19.50;99.90;;;19.43;100.00;97221.94;5078400;28;21066;-37
2023/06/22 04:59:00;;;;;;;8.77;6.32;;;19.50;99.90;;;19.50;100.00;97218.78;5079420;28;20035;-37
2023/06/22 05:01:26;;;;;;;9.57;6.93;;;19.50;99.90;;;19.60;100.00;97214.47;5075948;28;20110;-37
2023/06/22 05:03:55;;;;;;;9.80;7.07;;;19.70;99.90;;;19.73;100.00;97214.38;5078685;28;20046;-37
2023/06/22 05:06:24;;;;;;;11.20;7.00;;;19.80;99.90;;;19.87;100.00;97218.69;5069621;28;20023;-37
2023/06/22 05:08:57;;;;;;;10.50;6.38;;;20.00;99.90;;;20.01;100.00;97223.81;5079363;28;20039;-37
2023/06/22 05:11:27;;;;;;;11.40;6.18;;;20.20;99.90;;;20.17;100.00;97218.09;5075549;27;20738;-37
2023/06/22 05:13:53;;;;;;;9.75;7.05;;;20.30;99.90;;;20.28;100.00;97225.28;5081205;28;20501;-37
2023/06/22 05:16:24;;;;;;;10.07;6.18;;;20.60;99.90;;;20.43;100.00;97223.22;5071194;28;20058;-37
2023/06/22 05:18:55;;;;;;;7.32;5.80;;;20.50;99.90;;;20.58;100.00;97217.50;5080310;27;20450;-37
2023/06/22 05:21:23;;;;;;;9.30;5.82;;;20.60;99.90;;;20.73;100.00;97202.03;5067832;27;20024;-37
2023/06/22 05:23:49;;;;;;;9.68;6.05;;;20.70;99.90;;;20.88;100.00;97207.09;5075481;27;20050;-37
2023/06/22 05:26:15;;;;;;;9.63;6.35;;;20.90;99.90;;;21.05;100.00;97203.91;5075897;27;20062;-37
2023/06/22 05:28:41;;;;;;;7.82;5.72;;;21.00;99.90;;;21.29;100.00;97201.00;5081364;28;20536;-37
2023/06/22 05:31:06;;;;;;;9.70;6.15;;;21.20;99.90;;;21.63;100.00;97203.53;5075553;28;20113;-37
2023/06/22 05:33:33;;;;;;;9.18;6.07;;;21.40;99.90;;;22.11;100.00;97216.41;5075193;27;20082;-37
2023/06/22 05:35:58;;;;;;;8.10;5.97;;;21.70;99.90;;;22.45;100.00;97207.25;5077542;28;20046;-37
2023/06/22 05:38:24;;;;;;;8.65;6.32;;;21.90;99.90;;;22.51;100.00;97203.19;5082022;28;20028;-37
2023/06/22 05:40:50;;;;;;;8.90;6.40;;;22.10;99.90;;;22.42;100.00;97207.53;5081588;28;20233;-37
2023/06/22 05:43:15;;;;;;;8.00;6.50;;;22.10;99.90;;;22.30;100.00;97204.94;5078985;28;20028;-37
2023/06/22 05:45:41;;;;;;;11.05;7.13;;;22.10;99.90;;;22.19;100.00;97213.06;5078137;28;20189;-37
2023/06/22 05:48:07;;;;;;;8.65;6.63;;;22.10;99.90;;;22.15;100.00;97213.47;5078697;28;20024;-37
2023/06/22 05:50:33;;;;;;;11.00;6.75;;;22.10;99.90;;;22.09;100.00;97215.69;5075874;28;20508;-37
2023/06/22 05:52:58;;;;;;;8.48;6.63;;;22.10;99.90;;;22.02;100.00;97205.59;5077713;28;20020;-37
2023/06/22 05:55:24;;;;;;;6.60;5.38;;;22.00;99.90;;;22.03;100.00;97204.63;5074876;28;20123;-37
2023/06/22 05:57:50;;;;;;;7.93;6.53;;;22.00;99.90;;;22.02;100.00;97203.78;5080327;28;20035;-37
2023/06/22 06:00:16;;;;;;;9.00;6.32;;;22.00;99.90;;;21.96;100.00;97203.47;5075795;27;20650;-37
2023/06/22 06:02:43;;;;;;;10.48;7.35;;;22.00;99.90;;;21.89;100.00;97203.13;5079162;28;20084;-37
2023/06/22 06:05:15;;;;;;;10.20;6.30;;;21.90;99.90;;;21.82;100.00;97212.69;5074830;28;20038;-37
2023/06/22 06:07:42;;;;;;;12.02;6.53;;;21.80;99.90;;;21.70;100.00;97199.34;5076337;28;20027;-37
2023/06/22 06:10:09;;;;;;;10.73;6.85;;;21.80;99.90;;;21.74;100.00;97208.00;5071493;28;21499;-37
2023/06/22 06:12:35;;;;;;;11.38;6.38;;;21.80;99.90;;;21.74;100.00;97197.25;5078612;28;20032;-37
2023/06/22 06:15:01;;;;;;;9.52;6.78;;;21.70;99.90;;;21.77;100.00;97191.63;5075104;28;20028;-37
2023/06/22 06:17:26;;;;;;;12.77;6.60;;;21.80;99.90;;;21.83;100.00;97193.78;5069719;27;20032;-37
2023/06/22 06:19:52;;;;;;;9.60;6.53;;;21.80;99.90;;;21.95;100.00;97189.19;5078493;28;20024;-37
2023/06/22 06:22:18;;;;;;;10.65;6.47;;;21.90;99.90;;;22.10;100.00;97195.06;5079163;28;20500;-37
2023/06/22 06:24:45;;;;;;;9.13;6.70;;;22.10;99.90;;;22.30;100.00;97194.19;5079818;28;20028;-37
2023/06/22 06:27:11;;;;;;;11.15;6.53;;;22.20;99.90;;;22.46;100.00;97196.38;5076455;28;20036;-37
2023/06/22 06:29:36;;;;;;;8.85;5.53;;;22.40;99.90;;;22.63;100.00;97197.56;5076366;28;20042;-37
2023/06/22 06:32:03;;;;;;;8.07;6.22;;;22.50;99.90;;;22.81;100.00;97195.06;5072109;28;20039;-37
2023/06/22 06:34:29;;;;;;;10.48;6.38;;;22.70;99.90;;;22.99;100.00;97197.09;5067312;28;20034;-37
2023/06/22 06:36:54;;;;;;;12.77;6.50;;;22.90;99.90;;;23.15;100.00;97193.84;5079597;28;20028;-37
2023/06/22 06:39:20;;;;;;;8.40;5.57;;;23.10;99.90;;;23.34;100.00;97191.19;5075213;28;20042;-37
2023/06/22 06:41:46;;;;;;;9.23;6.40;;;23.20;99.90;;;23.43;100.00;97202.94;5077690;28;20027;-37
2023/06/22 06:44:11;;;;;;;9.43;5.60;;;23.40;99.90;;;23.60;100.00;97204.06;5080213;28;20028;-37
2023/06/22 06:46:37;;;;;;;8.45;5.68;;;23.50;99.90;;;23.74;100.00;97209.03;5078600;28;20068;-37
2023/06/22 06:49:03;;;;;;;6.35;5.40;;;23.60;99.90;;;23.87;100.00;97205.19;5083073;28;20039;-37
2023/06/22 06:51:29;;;;;;;7.97;4.82;;;23.70;99.90;;;24.05;100.00;97206.16;5084699;28;20062;-37
2023/06/22 06:53:55;;;;;;;8.95;5.00;;;23.80;99.90;;;24.25;100.00;97211.47;5082870;28;20118;-37
2023/06/22 06:56:21;;;;;;;6.50;5.07;;;24.00;99.90;;;24.39;100.00;97211.84;5086736;28;20122;-37
2023/06/22 06:58:46;;;;;;;8.20;5.47;;;24.20;99.90;;;24.47;98.20;97194.06;5085177;28;20481;-37
2023/06/22 07:01:13;;;;;;;8.45;5.13;;;24.30;99.90;;;24.62;97.71;97205.25;5082226;28;20024;-37
2023/06/22 07:03:38;;;;;;;7.90;5.65;;;24.40;99.90;;;24.68;92.59;97199.25;5080931;28;20475;-37
2023/06/22 07:06:04;;;;;;;6.47;5.20;;;24.50;99.90;;;24.74;95.90;97195.97;5090409;27;20045;-37
2023/06/22 07:08:30;;;;;;;6.38;4.30;;;24.50;99.90;;;24.85;97.99;97203.84;5085342;27;20027;-37
2023/06/22 07:10:56;;;;;;;6.18;4.90;;;24.70;99.90;;;24.88;93.85;97192.75;5085136;28;20115;-37
2023/06/22 07:13:22;;;;;;;8.70;5.60;;;24.70;99.90;;;24.83;90.79;97200.44;5082454;28;20119;-37
2023/06/22 07:15:48;;;;;;;9.98;4.57;;;24.70;99.90;;;24.83;91.47;97183.41;5083304;28;20035;-37
2023/06/22 07:18:13;;;;;;;12.70;5.45;;;24.70;99.90;;;24.87;93.35;97177.59;5079799;28;20039;-37
2023/06/22 07:20:39;;;;;;;10.18;5.38;;;24.80;99.90;;;24.89;91.02;97172.88;5078458;28;20746;-37
2023/06/22 07:23:05;;;;;;;6.78;5.00;;;24.70;99.90;;;24.96;92.59;97171.28;5078473;28;20024;-37
2023/06/22 07:25:31;;;;;;;9.75;5.80;;;24.90;99.90;;;25.04;94.23;97165.09;5077079;23;20692;-38
2023/06/22 07:28:03;;;;;;;5.97;4.60;;;24.90;99.90;;;25.18;93.01;97169.13;5074588;28;20024;-36
2023/06/22 07:30:31;;;;;;;7.70;5.07;;;25.00;99.90;;;25.22;89.85;97146.22;5073951;28;20036;-36
2023/06/22 07:32:58;;;;;;;9.30;5.88;;;25.10;99.90;;;25.40;87.77;97164.28;5068743;28;20047;-37
2023/06/22 07:35:24;;;;;;;6.13;5.18;;;25.30;99.90;;;25.49;88.88;97158.78;5068126;28;21030;-37
2023/06/22 07:37:50;;;;;;;7.82;5.00;;;25.30;99.90;;;25.63;87.27;97145.75;5075098;28;20506;-36
2023/06/22 07:40:16;;;;;;;8.82;6.07;;;25.50;99.90;;;25.70;88.13;97144.94;5074344;28;20035;-36
2023/06/22 07:42:41;;;;;;;6.72;4.70;;;25.60;99.90;;;25.76;83.93;97148.03;5070891;28;20059;-36
2023/06/22 07:45:08;;;;;;;8.05;4.70;;;25.70;99.90;;;25.83;82.50;97149.09;5065873;28;20490;-36
2023/06/22 07:47:35;;;;;;;8.45;4.93;;;25.70;99.90;;;25.82;85.15;97125.78;5062685;28;20033;-36
2023/06/22 07:50:01;;;;;;;9.35;5.07;;;25.80;99.90;;;25.96;82.85;97132.47;5067452;28;20320;-36
2023/06/22 07:52:29;;;;;;;7.30;5.40;;;25.80;99.90;;;26.09;83.01;97122.06;5064772;28;20043;-36
2023/06/22 07:54:54;;;;;;;10.20;5.38;;;25.90;99.90;;;26.06;82.85;97114.31;5069008;28;20058;-36
2023/06/22 07:57:20;;;;;;;9.02;5.38;;;26.00;99.90;;;26.16;80.94;97119.56;5066751;28;20040;-37
2023/06/22 07:59:46;;;;;;;8.43;5.15;;;26.10;99.90;;;26.28;88.42;97115.59;5065902;28;20055;-36
2023/06/22 08:02:12;;;;;;;8.65;5.38;;;26.10;99.90;;;26.35;79.67;97122.03;5058744;28;20258;-37
2023/06/22 08:04:38;;;;;;;6.38;4.70;;;26.20;99.90;;;26.43;75.16;97134.72;5062413;28;20634;-36
2023/06/22 08:07:05;;;;;;;6.28;4.70;;;26.30;99.90;;;26.40;76.32;97144.03;5060370;28;20024;-38
2023/06/22 08:09:32;;;;;;;5.78;4.80;;;26.20;99.90;;;26.44;76.89;97150.78;5067053;28;20024;-37
2023/06/22 08:11:59;;;;;;;11.00;5.35;;;26.30;99.90;;;26.50;79.51;97161.97;5060955;28;20036;-37
2023/06/22 08:14:29;;;;;;;7.53;4.50;;;26.40;99.90;;;26.66;76.72;97167.47;5055531;28;20405;-36
2023/06/22 08:16:55;;;;;;;6.13;4.70;;;26.50;99.90;;;26.86;77.12;97165.31;5063403;28;20439;-36
2023/06/22 08:19:21;;;;;;;7.72;4.35;;;26.70;99.90;;;27.05;76.15;97165.03;5063422;28;22467;-37
2023/06/22 08:21:46;;;;;;;9.00;5.10;;;26.90;99.90;;;27.22;75.69;97165.06;5067857;28;20040;-36
2023/06/22 08:24:12;;;;;;;8.68;5.13;;;27.10;99.90;;;27.34;70.13;97168.34;5067967;28;20040;-37
2023/06/22 08:26:38;;;;;;;7.85;5.22;;;27.10;99.90;;;27.37;68.13;97171.56;5065232;28;20489;-37
2023/06/22 08:29:04;;;;;;;6.55;5.03;;;27.40;99.90;;;27.55;67.00;97184.09;5063250;28;20040;-38
2023/06/22 08:31:34;;;;;;;10.35;4.20;;;27.50;99.90;;;27.72;69.20;97188.47;5059987;28;20028;-36
2023/06/22 08:33:59;;;;;;;6.45;4.65;;;27.60;99.90;;;27.94;66.42;97189.69;5060168;28;21045;-37
2023/06/22 08:36:28;;;;;;;9.98;4.63;;;27.80;99.90;;;28.05;62.50;97193.03;5051652;28;20035;-36
2023/06/22 08:39:02;;;;;;;12.43;5.03;;;28.00;99.90;;;28.13;65.84;97195.75;5066183;28;20032;-37
2023/06/22 08:41:28;;;;;;;9.02;5.53;;;28.10;99.90;;;28.04;62.66;97196.78;5063913;28;20489;-38
2023/06/22 08:43:54;;;;;;;8.50;4.85;;;28.00;99.90;;;27.96;62.83;97187.66;5063010;28;20041;-36
2023/06/22 08:46:23;;;;;;;8.73;5.10;;;27.90;99.90;;;28.07;63.36;97177.47;5059408;28;20036;-36
2023/06/22 08:48:50;;;;;;;6.75;4.80;;;27.90;99.90;;;28.41;62.31;97168.22;5068525;28;20153;-36
2023/06/22 08:51:16;;;;;;;10.32;5.10;;;28.30;99.90;;;28.82;58.35;97170.78;5067949;28;20042;-36
2023/06/22 08:53:42;;;;;;;7.28;4.75;;;28.70;99.90;;;29.04;56.14;97148.28;5064068;28;20477;-36
2023/06/22 08:56:08;;;;;;;7.88;5.03;;;29.10;99.90;;;29.42;55.63;97161.94;5070109;28;20039;-36
2023/06/22 08:58:34;;;;;;;8.00;4.72;;;29.40;99.90;;;29.41;54.66;97162.13;5058398;28;20199;-36
2023/06/22 09:01:01;;;;;;;12.73;4.45;;;29.40;99.80;;;29.56;55.54;97164.88;5066156;28;20012;-36
2023/06/22 09:03:26;;;;;;;10.35;4.80;;;29.50;99.90;;;29.68;53.95;97169.72;5060129;28;20520;-36
2023/06/22 09:05:52;;;;;;;7.70;5.03;;;29.60;99.60;;;29.87;52.57;97164.81;5066950;28;20029;-37
2023/06/22 09:08:18;;;;;;;9.93;5.10;;;29.80;99.20;;;29.95;51.92;97169.31;5064132;28;20104;-37
2023/06/22 09:10:44;;;;;;;9.23;5.53;;;29.90;98.80;;;30.01;51.79;97152.28;5063067;28;20047;-36
2023/06/22 09:13:09;;;;;;;9.60;5.05;;;30.00;98.70;;;30.16;49.93;97146.84;5058768;28;20024;-36
2023/06/22 09:15:35;;;;;;;8.80;4.90;;;30.10;97.30;;;30.08;51.36;97155.97;5067089;28;20061;-37
2023/06/22 09:18:01;;;;;;;12.40;5.85;;;30.00;97.70;;;29.82;50.38;97175.41;5060127;28;20040;-37
2023/06/22 09:20:26;;;;;;;12.05;5.13;;;29.90;96.90;;;29.56;51.85;97192.91;5062598;28;20028;-37
2023/06/22 09:22:52;;;;;;;11.60;5.10;;;29.60;97.10;;;29.63;51.93;97191.16;5062924;28;20032;-37
2023/06/22 09:25:20;;;;;;;12.23;4.80;;;29.50;97.50;;;29.82;50.52;97176.22;5057055;28;20035;-37
2023/06/22 09:27:47;;;;;;;11.60;5.25;;;29.70;97.40;;;29.89;54.53;97155.44;5055865;28;20032;-39
2023/06/22 09:30:12;;;;;;;9.10;5.05;;;29.90;99.90;;;30.05;49.50;97157.16;5055062;28;20027;-37
2023/06/22 09:32:38;;;;;;;9.85;5.00;;;30.00;96.40;;;30.17;50.68;97135.78;5063232;28;20039;-37
2023/06/22 09:35:06;;;;;;;9.65;5.10;;;30.00;96.40;;;30.17;52.47;97133.09;5059315;28;20123;-38
2023/06/22 09:37:32;;;;;;;11.05;5.32;;;30.10;96.90;;;30.07;49.73;97140.66;5063435;28;20116;-37
2023/06/22 09:39:57;;;;;;;9.40;4.82;;;30.10;96.00;;;29.97;49.57;97138.22;5069418;28;20028;-36
2023/06/22 09:42:23;;;;;;;8.35;5.22;;;30.00;95.80;;;29.91;51.73;97129.97;5063684;28;20090;-38
2023/06/22 09:44:49;;;;;;;10.77;4.93;;;29.80;96.50;;;29.91;49.64;97132.69;5063030;28;21000;-37
2023/06/22 09:47:14;;;;;;;11.98;5.15;;;29.80;96.00;;;29.90;48.61;97137.28;5064935;28;20128;-36
2023/06/22 09:49:40;;;;;;;7.60;4.70;;;29.80;95.40;;;29.99;52.72;97132.59;5061302;28;20040;-37
2023/06/22 09:52:06;;;;;;;7.95;5.10;;;29.80;96.80;;;30.12;51.27;97116.47;5069365;28;20048;-37
2023/06/22 09:54:32;;;;;;;9.48;5.40;;;30.00;96.10;;;30.25;49.05;97100.34;5068921;28;20027;-37
2023/06/22 09:56:58;;;;;;;13.40;5.88;;;30.10;95.40;;;30.18;48.70;97087.69;5066268;28;20375;-37
2023/06/22 09:59:23;;;;;;;8.32;5.32;;;30.30;95.20;;;30.34;49.58;97094.84;5062578;28;20155;-37
2023/06/22 10:01:49;;;;;;;8.35;4.97;;;30.30;95.60;;;30.58;48.20;97097.25;5061420;28;20025;-38
2023/06/22 10:04:15;;;;;;;10.85;5.57;;;30.50;94.70;;;30.60;48.12;97099.78;5062001;28;20390;-38
2023/06/22 10:06:40;;;;;;;12.75;5.63;;;30.60;94.70;;;30.82;48.56;97093.31;5059485;28;20541;-38
2023/06/22 10:09:07;;;;;;;7.15;4.38;;;30.70;94.70;;;31.08;48.37;97102.84;5057818;28;20612;-37
2023/06/22 10:11:34;;;;;;;14.50;5.63;;;31.00;94.90;;;31.23;47.34;97099.19;5058461;28;20044;-37
2023/06/22 10:14:01;;;;;;;8.52;5.00;;;31.10;94.00;;;31.35;47.96;97092.19;5056804;28;20435;-37